createdAt,value
2023-05-24T00:00:06.355Z,9.85
2023-05-24T00:02:33.748Z,9.40
2023-05-24T00:05:01.985Z,10.13
2023-05-24T00:07:29.352Z,9.82
2023-05-24T00:09:56.612Z,9.95
2023-05-24T00:12:24.228Z,10.18
2023-05-24T00:14:51.868Z,9.88
2023-05-24T00:17:19.362Z,9.45
2023-05-24T00:19:46.710Z,9.68
2023-05-24T00:22:14.235Z,9.40
2023-05-24T00:24:41.553Z,10.00
2023-05-24T00:27:08.953Z,9.40
2023-05-24T00:29:36.162Z,9.25
2023-05-24T00:32:03.632Z,8.93
2023-05-24T00:34:31.022Z,9.27
2023-05-24T00:36:58.981Z,9.90
2023-05-24T00:39:27.506Z,9.05
2023-05-24T00:41:54.969Z,9.50
2023-05-24T00:44:22.254Z,9.45
2023-05-24T00:46:50.205Z,9.05
2023-05-24T00:49:17.963Z,9.00
2023-05-24T00:51:46.202Z,8.60
2023-05-24T00:54:15.167Z,8.20
2023-05-24T00:56:44.186Z,8.43
2023-05-24T00:59:11.477Z,9.32
2023-05-24T01:01:39.103Z,9.18
2023-05-24T01:04:07.627Z,8.60
2023-05-24T01:06:45.138Z,7.72
2023-05-24T01:09:24.866Z,8.75
2023-05-24T01:11:56.472Z,9.00
2023-05-24T01:14:29.542Z,8.95
2023-05-24T01:17:09.495Z,8.32
2023-05-24T01:19:43.501Z,8.80
2023-05-24T01:22:19.957Z,8.60
2023-05-24T01:24:50.394Z,8.80
2023-05-24T01:27:18.683Z,9.02
2023-05-24T01:29:53.412Z,8.85
2023-05-24T01:32:21.642Z,8.73
2023-05-24T01:34:48.890Z,8.45
2023-05-24T01:37:16.951Z,8.93
2023-05-24T01:39:44.265Z,8.65
2023-05-24T01:42:26.378Z,8.93
2023-05-24T01:45:09.326Z,9.23
2023-05-24T01:47:44.431Z,8.77
2023-05-24T01:50:25.184Z,10.00
2023-05-24T01:52:55.553Z,9.35
2023-05-24T01:55:28.446Z,9.25
2023-05-24T01:58:00.914Z,10.05
2023-05-24T02:00:30.497Z,8.93
2023-05-24T02:02:58.892Z,8.82
2023-05-24T02:05:26.423Z,9.40
2023-05-24T02:07:53.749Z,9.45
2023-05-24T02:10:21.194Z,9.43
2023-05-24T02:12:48.535Z,9.43
2023-05-24T02:15:15.936Z,9.90
2023-05-24T02:17:43.541Z,10.80
2023-05-24T02:20:13.545Z,9.60
2023-05-24T02:22:41.708Z,8.88
2023-05-24T02:25:09.357Z,9.52
2023-05-24T02:27:36.694Z,10.40
2023-05-24T02:30:04.788Z,9.65
2023-05-24T02:32:32.950Z,8.45
2023-05-24T02:35:02.294Z,8.93
2023-05-24T02:37:29.516Z,9.13
2023-05-24T02:39:56.837Z,8.88
2023-05-24T02:42:24.362Z,8.27
2023-05-24T02:44:52.748Z,9.27
2023-05-24T02:47:20.100Z,8.88
2023-05-24T02:49:47.668Z,8.70
2023-05-24T02:52:16.105Z,8.77
2023-05-24T02:54:43.529Z,9.18
2023-05-24T02:57:11.864Z,8.90
2023-05-24T02:59:43.613Z,9.07
2023-05-24T03:02:13.894Z,9.65
2023-05-24T03:04:41.800Z,9.82
2023-05-24T03:07:12.055Z,9.45
2023-05-24T03:09:39.535Z,8.75
2023-05-24T03:12:07.237Z,8.40
2023-05-24T03:14:34.964Z,8.40
2023-05-24T03:17:02.425Z,9.25
2023-05-24T03:19:29.844Z,9.10
2023-05-24T03:21:58.152Z,8.85
2023-05-24T03:24:26.237Z,8.48
2023-05-24T03:26:53.649Z,8.73
2023-05-24T03:29:21.664Z,9.15
2023-05-24T03:31:50.873Z,8.73
2023-05-24T03:34:18.329Z,8.75
2023-05-24T03:36:45.737Z,8.88
2023-05-24T03:39:14.258Z,9.35
2023-05-24T03:41:54.894Z,8.75
2023-05-24T03:44:22.369Z,8.95
2023-05-24T03:46:49.776Z,9.02
2023-05-24T03:49:17.225Z,9.63
2023-05-24T03:51:44.626Z,9.10
2023-05-24T03:54:12.057Z,9.23
2023-05-24T03:56:41.636Z,8.40
2023-05-24T03:59:09.376Z,9.35
2023-05-24T04:01:36.892Z,9.15
2023-05-24T04:04:04.594Z,8.38
2023-05-24T04:06:32.076Z,9.02
2023-05-24T04:09:02.040Z,10.18
2023-05-24T04:11:30.031Z,9.55
2023-05-24T04:14:00.701Z,8.60
2023-05-24T04:16:29.398Z,9.43
2023-05-24T04:18:57.745Z,8.32
2023-05-24T04:21:25.334Z,8.98
2023-05-24T04:23:54.378Z,9.18
2023-05-24T04:26:21.986Z,7.97
2023-05-24T04:28:50.754Z,8.70
2023-05-24T04:31:18.066Z,8.07
2023-05-24T04:33:47.916Z,8.52
2023-05-24T04:36:16.361Z,8.50
2023-05-24T04:38:45.739Z,8.68
2023-05-24T04:41:13.559Z,7.85
2023-05-24T04:43:41.047Z,9.15
2023-05-24T04:46:09.352Z,8.88
2023-05-24T04:48:37.090Z,8.57
2023-05-24T04:51:04.710Z,7.97
2023-05-24T04:53:33.062Z,7.68
2023-05-24T04:56:00.334Z,8.15
2023-05-24T04:58:27.746Z,8.15
2023-05-24T05:00:54.994Z,8.18
2023-05-24T05:03:22.457Z,8.27
2023-05-24T05:05:49.843Z,8.02
2023-05-24T05:08:17.305Z,7.65
2023-05-24T05:10:44.881Z,8.50
2023-05-24T05:13:12.412Z,7.75
2023-05-24T05:15:41.632Z,7.85
2023-05-24T05:18:10.449Z,7.40
2023-05-24T05:20:37.941Z,7.88
2023-05-24T05:23:05.567Z,7.60
2023-05-24T05:25:32.840Z,7.95
2023-05-24T05:28:00.284Z,7.28
2023-05-24T05:30:27.515Z,6.85
2023-05-24T05:32:54.916Z,6.35
2023-05-24T05:35:22.543Z,6.97
2023-05-24T05:37:49.960Z,7.40
2023-05-24T05:40:17.305Z,6.75
2023-05-24T05:42:44.872Z,6.95
2023-05-24T05:45:12.297Z,7.75
2023-05-24T05:47:40.711Z,7.10
2023-05-24T05:50:08.684Z,6.50
2023-05-24T05:52:36.130Z,6.15
2023-05-24T05:55:03.582Z,7.10
2023-05-24T05:57:31.029Z,6.70
2023-05-24T05:59:58.288Z,7.35
2023-05-24T06:02:25.708Z,6.47
2023-05-24T06:04:53.234Z,6.32
2023-05-24T06:07:20.784Z,6.50
2023-05-24T06:09:48.060Z,6.43
2023-05-24T06:12:15.747Z,5.82
2023-05-24T06:14:43.399Z,5.95
2023-05-24T06:17:11.445Z,6.13
2023-05-24T06:19:38.792Z,5.97
2023-05-24T06:22:06.657Z,6.53
2023-05-24T06:24:34.982Z,6.30
2023-05-24T06:27:04.672Z,5.82
2023-05-24T06:29:32.777Z,6.55
2023-05-24T06:32:00.202Z,5.72
2023-05-24T06:34:28.368Z,5.80
2023-05-24T06:36:55.680Z,6.30
2023-05-24T06:39:25.233Z,6.80
2023-05-24T06:41:53.977Z,5.63
2023-05-24T06:44:31.952Z,6.10
2023-05-24T06:46:59.745Z,6.13
2023-05-24T06:49:27.357Z,6.10
2023-05-24T06:51:54.760Z,5.82
2023-05-24T06:54:22.148Z,5.93
2023-05-24T06:56:49.532Z,5.40
2023-05-24T06:59:16.762Z,5.85
2023-05-24T07:01:44.361Z,5.18
2023-05-24T07:04:11.703Z,5.20
2023-05-24T07:06:39.481Z,5.55
2023-05-24T07:09:07.100Z,5.20
2023-05-24T07:11:34.514Z,4.85
2023-05-24T07:14:01.828Z,5.00
2023-05-24T07:16:29.277Z,5.03
2023-05-24T07:18:56.580Z,5.55
2023-05-24T07:21:24.150Z,5.20
2023-05-24T07:23:52.048Z,5.72
2023-05-24T07:26:19.359Z,5.53
2023-05-24T07:28:46.613Z,5.43
2023-05-24T07:31:14.090Z,6.60
2023-05-24T07:33:41.410Z,5.78
2023-05-24T07:36:09.021Z,6.05
2023-05-24T07:38:36.412Z,5.75
2023-05-24T07:41:04.891Z,5.53
2023-05-24T07:43:32.385Z,5.18
2023-05-24T07:45:59.908Z,5.28
2023-05-24T07:48:27.273Z,5.57
2023-05-24T07:50:55.123Z,5.93
2023-05-24T07:53:23.531Z,5.40
2023-05-24T07:55:51.851Z,5.18
2023-05-24T07:58:19.245Z,5.30
2023-05-24T08:00:46.973Z,5.70
2023-05-24T08:03:15.713Z,5.07
2023-05-24T08:05:43.912Z,4.88
2023-05-24T08:08:11.648Z,5.82
2023-05-24T08:10:39.137Z,5.05
2023-05-24T08:13:06.682Z,5.57
2023-05-24T08:15:34.120Z,4.68
2023-05-24T08:18:01.533Z,4.35
2023-05-24T08:20:28.993Z,5.22
2023-05-24T08:22:56.665Z,5.32
2023-05-24T08:25:24.759Z,5.95
2023-05-24T08:27:52.431Z,5.60
2023-05-24T08:30:20.181Z,5.60
2023-05-24T08:32:47.748Z,5.85
2023-05-24T08:35:20.833Z,5.72
2023-05-24T08:37:49.680Z,5.70
2023-05-24T08:40:18.032Z,5.60
2023-05-24T08:42:46.859Z,5.93
2023-05-24T08:45:15.975Z,6.13
2023-05-24T08:47:43.857Z,5.32
2023-05-24T08:50:11.450Z,5.78
2023-05-24T08:52:40.111Z,5.75
2023-05-24T08:55:07.975Z,5.20
2023-05-24T08:57:40.114Z,5.07
2023-05-24T09:00:11.914Z,5.10
2023-05-24T09:02:40.689Z,5.20
2023-05-24T09:05:12.436Z,5.47
2023-05-24T09:07:42.334Z,4.80
2023-05-24T09:10:10.505Z,4.72
2023-05-24T09:12:39.679Z,5.40
2023-05-24T09:15:08.807Z,7.53
2023-05-24T09:17:38.184Z,5.00
2023-05-24T09:20:10.486Z,4.65
2023-05-24T09:22:42.308Z,5.30
2023-05-24T09:25:12.993Z,5.25
2023-05-24T09:27:40.486Z,5.25
2023-05-24T09:30:10.514Z,5.13
2023-05-24T09:32:38.475Z,5.50
2023-05-24T09:35:09.943Z,5.05
2023-05-24T09:37:39.206Z,5.10
2023-05-24T09:40:09.137Z,5.70
2023-05-24T09:42:36.518Z,5.45
2023-05-24T09:45:07.808Z,5.40
2023-05-24T09:47:37.293Z,4.30
2023-05-24T09:50:07.259Z,5.05
2023-05-24T09:52:37.280Z,5.22
2023-05-24T09:55:07.718Z,4.82
2023-05-24T09:57:35.214Z,4.75
2023-05-24T10:00:14.898Z,5.40
2023-05-24T10:02:52.851Z,5.07
2023-05-24T10:05:21.830Z,4.43
2023-05-24T10:07:49.360Z,5.45
2023-05-24T10:10:16.931Z,5.25
2023-05-24T10:12:47.176Z,5.07
2023-05-24T10:15:15.724Z,4.90
2023-05-24T10:17:43.199Z,4.60
2023-05-24T10:20:12.739Z,4.57
2023-05-24T10:22:45.667Z,4.85
2023-05-24T10:25:16.890Z,4.80
2023-05-24T10:27:46.326Z,5.43
2023-05-24T10:30:19.540Z,4.30
2023-05-24T10:32:49.201Z,4.90
2023-05-24T10:35:18.302Z,4.70
2023-05-24T10:37:47.611Z,4.60
2023-05-24T10:40:17.907Z,4.30
2023-05-24T10:42:46.251Z,4.38
2023-05-24T10:45:16.605Z,4.57
2023-05-24T10:47:44.030Z,4.95
2023-05-24T10:50:20.892Z,4.30
2023-05-24T10:52:49.838Z,4.75
2023-05-24T10:55:20.076Z,4.25
2023-05-24T10:57:47.601Z,4.75
2023-05-24T11:03:04.335Z,4.32
2023-05-24T11:05:34.639Z,4.05
2023-05-24T11:08:04.133Z,4.35
2023-05-24T11:10:32.286Z,4.05
2023-05-24T11:13:02.140Z,3.92
2023-05-24T11:15:30.452Z,3.90
2023-05-24T11:18:00.758Z,4.22
2023-05-24T11:20:28.227Z,3.92
2023-05-24T11:22:56.037Z,3.95
2023-05-24T11:25:23.187Z,4.00
2023-05-24T11:27:50.808Z,4.20
2023-05-24T11:30:19.473Z,3.60
2023-05-24T11:32:48.425Z,4.25
2023-05-24T11:35:16.120Z,4.13
2023-05-24T11:37:46.914Z,4.22
2023-05-24T11:40:16.264Z,4.40
2023-05-24T11:42:44.419Z,3.78
2023-05-24T11:45:12.195Z,3.80
2023-05-24T11:47:39.706Z,4.25
2023-05-24T11:50:07.807Z,3.75
2023-05-24T11:52:40.150Z,3.47
2023-05-24T11:55:08.006Z,3.50
2023-05-24T11:57:40.274Z,4.13
2023-05-24T12:00:11.590Z,4.37
2023-05-24T12:02:40.301Z,3.42
2023-05-24T12:05:10.580Z,3.78
2023-05-24T12:07:38.348Z,3.70
2023-05-24T12:10:06.555Z,3.97
2023-05-24T12:12:45.192Z,4.20
2023-05-24T12:15:14.978Z,3.88
2023-05-24T12:17:42.247Z,4.22
2023-05-24T12:20:11.477Z,3.63
2023-05-24T12:22:38.855Z,4.05
2023-05-24T12:25:06.839Z,3.17
2023-05-24T12:27:34.847Z,3.50
2023-05-24T12:30:05.169Z,3.90
2023-05-24T12:32:32.471Z,3.72
2023-05-24T12:34:59.734Z,3.60
2023-05-24T12:37:31.238Z,3.83
2023-05-24T12:40:01.442Z,3.38
2023-05-24T12:42:29.413Z,3.60
2023-05-24T12:44:56.688Z,3.50
2023-05-24T12:47:23.992Z,3.78
2023-05-24T12:49:51.290Z,3.65
2023-05-24T12:52:18.527Z,3.20
2023-05-24T12:54:46.400Z,3.92
2023-05-24T12:57:13.555Z,3.78
2023-05-24T12:59:40.854Z,3.78
2023-05-24T13:02:08.090Z,3.58
2023-05-24T13:04:36.133Z,3.70
2023-05-24T13:07:03.983Z,4.05
2023-05-24T13:09:31.545Z,3.72
2023-05-24T13:11:58.664Z,3.40
2023-05-24T13:14:25.931Z,3.80
2023-05-24T13:16:53.351Z,3.50
2023-05-24T13:19:20.653Z,3.60
2023-05-24T13:21:47.897Z,3.58
2023-05-24T13:24:16.561Z,3.72
2023-05-24T13:26:44.852Z,3.65
2023-05-24T13:29:30.746Z,3.50
2023-05-24T13:31:59.897Z,4.00
2023-05-24T13:34:27.289Z,3.78
2023-05-24T13:36:54.910Z,3.85
2023-05-24T13:39:22.923Z,3.97
2023-05-24T13:41:50.333Z,3.72
2023-05-24T13:44:17.593Z,4.07
2023-05-24T13:46:45.578Z,3.85
2023-05-24T13:49:13.349Z,3.58
2023-05-24T13:51:40.730Z,3.95
2023-05-24T13:54:08.325Z,4.07
2023-05-24T13:56:36.694Z,3.47
2023-05-24T13:59:05.198Z,3.50
2023-05-24T14:01:33.712Z,3.50
2023-05-24T14:04:02.272Z,3.92
2023-05-24T14:06:29.703Z,4.05
2023-05-24T14:08:56.917Z,3.80
2023-05-24T14:11:25.020Z,3.72
2023-05-24T14:14:32.933Z,3.67
2023-05-24T14:16:40.287Z,4.03
2023-05-24T14:19:07.403Z,3.88
2023-05-24T14:21:34.602Z,3.28
2023-05-24T14:24:01.974Z,3.30
2023-05-24T14:26:29.375Z,3.65
2023-05-24T14:28:57.136Z,3.40
2023-05-24T14:31:24.924Z,3.90
2023-05-24T14:33:52.170Z,3.92
2023-05-24T14:36:19.521Z,3.70
2023-05-24T14:38:47.086Z,4.10
2023-05-24T14:41:15.410Z,3.70
2023-05-24T14:43:42.613Z,3.90
2023-05-24T14:46:10.026Z,4.03
2023-05-24T14:48:37.420Z,4.30
2023-05-24T14:51:04.736Z,4.05
2023-05-24T14:53:31.835Z,3.78
2023-05-24T14:55:59.330Z,4.45
2023-05-24T14:58:27.201Z,3.75
2023-05-24T15:00:54.620Z,4.55
2023-05-24T15:03:22.072Z,3.97
2023-05-24T15:05:49.375Z,3.63
2023-05-24T15:08:16.850Z,4.10
2023-05-24T15:10:45.319Z,3.75
2023-05-24T15:13:13.586Z,4.43
2023-05-24T15:15:42.140Z,4.65
2023-05-24T15:18:09.699Z,4.25
2023-05-24T15:20:37.241Z,4.38
2023-05-24T15:23:04.864Z,4.00
2023-05-24T15:25:32.146Z,3.97
2023-05-24T15:27:59.241Z,4.45
2023-05-24T15:30:26.578Z,5.18
2023-05-24T15:32:53.808Z,4.90
2023-05-24T15:35:21.756Z,4.28
2023-05-24T15:37:48.973Z,4.53
2023-05-24T15:40:16.390Z,4.22
2023-05-24T15:42:43.824Z,4.50
2023-05-24T15:45:11.625Z,4.47
2023-05-24T15:47:40.509Z,4.60
2023-05-24T15:50:09.084Z,4.30
2023-05-24T15:52:36.588Z,4.72
2023-05-24T15:55:04.775Z,6.03
2023-05-24T15:57:32.041Z,4.75
2023-05-24T15:59:59.396Z,5.15
2023-05-24T16:02:26.912Z,5.13
2023-05-24T16:04:55.663Z,5.13
2023-05-24T16:07:23.281Z,4.88
2023-05-24T16:09:51.094Z,5.25
2023-05-24T16:12:18.641Z,5.15
2023-05-24T16:14:46.182Z,4.95
2023-05-24T16:17:15.016Z,5.72
2023-05-24T16:19:42.339Z,4.85
2023-05-24T16:22:09.479Z,4.55
2023-05-24T16:24:36.772Z,4.82
2023-05-24T16:27:04.035Z,4.57
2023-05-24T16:29:31.410Z,4.32
2023-05-24T16:31:58.703Z,4.45
2023-05-24T16:34:26.062Z,4.70
2023-05-24T16:36:53.311Z,4.82
2023-05-24T16:39:20.617Z,4.32
2023-05-24T16:41:47.897Z,4.70
2023-05-24T16:44:17.912Z,4.45
2023-05-24T16:46:46.466Z,4.72
2023-05-24T16:49:14.002Z,4.22
2023-05-24T16:51:41.165Z,4.43
2023-05-24T16:54:09.340Z,4.47
2023-05-24T16:56:37.672Z,4.70
2023-05-24T16:59:05.295Z,4.43
2023-05-24T17:01:32.837Z,4.05
2023-05-24T17:04:00.416Z,4.30
2023-05-24T17:06:27.896Z,4.15
2023-05-24T17:08:55.190Z,4.00
2023-05-24T17:11:23.189Z,4.15
2023-05-24T17:13:51.522Z,4.20
2023-05-24T17:16:18.975Z,3.70
2023-05-24T17:18:46.417Z,3.53
2023-05-24T17:21:13.762Z,3.70
2023-05-24T17:23:41.516Z,3.55
2023-05-24T17:26:08.815Z,3.90
2023-05-24T17:28:36.281Z,4.10
2023-05-24T17:31:03.789Z,4.05
2023-05-24T17:33:32.056Z,4.00
2023-05-24T17:36:02.862Z,3.75
2023-05-24T17:38:33.237Z,4.20
2023-05-24T17:41:00.712Z,3.90
2023-05-24T17:43:29.193Z,3.70
2023-05-24T17:46:03.692Z,3.83
2023-05-24T17:48:32.570Z,3.90
2023-05-24T17:51:01.270Z,3.78
2023-05-24T17:53:32.140Z,4.05
2023-05-24T17:56:00.138Z,3.58
2023-05-24T17:58:28.617Z,3.60
2023-05-24T18:00:55.849Z,3.40
2023-05-24T18:03:24.133Z,3.58
2023-05-24T18:05:51.353Z,3.80
2023-05-24T18:08:19.140Z,3.72
2023-05-24T18:10:46.485Z,3.80
2023-05-24T18:13:13.698Z,3.65
2023-05-24T18:15:41.062Z,3.40
2023-05-24T18:18:08.518Z,4.00
2023-05-24T18:20:36.694Z,3.28
2023-05-24T18:23:04.131Z,3.72
2023-05-24T18:25:31.583Z,3.45
2023-05-24T18:27:58.980Z,3.67
2023-05-24T18:30:26.278Z,3.33
2023-05-24T18:33:04.947Z,3.60
2023-05-24T18:35:34.695Z,3.08
2023-05-24T18:38:01.835Z,3.10
2023-05-24T18:40:29.061Z,2.92
2023-05-24T18:42:56.474Z,3.17
2023-05-24T18:45:23.722Z,3.10
2023-05-24T18:47:51.058Z,3.63
2023-05-24T18:50:23.539Z,3.30
2023-05-24T18:52:51.058Z,2.88
2023-05-24T18:55:18.337Z,2.97
2023-05-24T18:57:45.988Z,3.53
2023-05-24T19:00:13.604Z,3.05
2023-05-24T19:02:41.138Z,3.10
2023-05-24T19:05:09.159Z,3.63
2023-05-24T19:07:36.660Z,3.45
2023-05-24T19:10:04.424Z,3.30
2023-05-24T19:12:31.888Z,3.63
2023-05-24T19:14:59.826Z,2.63
2023-05-24T19:17:27.215Z,3.10
2023-05-24T19:19:54.807Z,3.15
2023-05-24T19:22:22.133Z,2.80
2023-05-24T19:24:49.280Z,3.00
2023-05-24T19:27:16.517Z,3.25
2023-05-24T19:29:43.676Z,3.22
2023-05-24T19:32:11.742Z,3.45
2023-05-24T19:34:42.522Z,2.95
2023-05-24T19:37:09.917Z,2.80
2023-05-24T19:39:37.842Z,2.60
2023-05-24T19:42:06.632Z,2.88
2023-05-24T19:44:33.980Z,2.97
2023-05-24T19:47:01.217Z,2.78
2023-05-24T19:49:28.581Z,2.80
2023-05-24T19:51:55.856Z,2.60
2023-05-24T19:54:23.188Z,3.13
2023-05-24T19:56:52.053Z,3.35
2023-05-24T19:59:19.587Z,3.45
2023-05-24T20:01:46.835Z,3.05
2023-05-24T20:04:14.439Z,3.40
2023-05-24T20:06:41.935Z,3.67
2023-05-24T20:09:09.412Z,3.10
2023-05-24T20:11:36.793Z,2.80
2023-05-24T20:14:04.467Z,3.05
2023-05-24T20:16:31.678Z,3.13
2023-05-24T20:18:59.030Z,3.30
2023-05-24T20:21:26.257Z,3.13
2023-05-24T20:23:58.487Z,2.95
2023-05-24T20:26:26.638Z,3.13
2023-05-24T20:28:53.917Z,2.90
2023-05-24T20:31:21.249Z,3.55
2023-05-24T20:33:51.694Z,2.88
2023-05-24T20:36:19.004Z,3.35
2023-05-24T20:38:46.400Z,2.92
2023-05-24T20:41:13.707Z,3.45
2023-05-24T20:43:40.887Z,3.63
2023-05-24T20:46:08.125Z,2.92
2023-05-24T20:48:35.558Z,2.90
2023-05-24T20:51:03.017Z,3.38
2023-05-24T20:53:30.475Z,3.15
2023-05-24T20:55:57.774Z,3.30
2023-05-24T20:58:24.904Z,3.42
2023-05-24T21:00:52.095Z,3.10
2023-05-24T21:03:19.541Z,3.05
2023-05-24T21:05:46.854Z,3.35
2023-05-24T21:08:14.025Z,2.80
2023-05-24T21:10:41.336Z,3.40
2023-05-24T21:13:08.545Z,3.40
2023-05-24T21:15:35.833Z,3.13
2023-05-24T21:18:04.066Z,3.13
2023-05-24T21:20:31.401Z,3.00
2023-05-24T21:22:58.655Z,3.65
2023-05-24T21:25:25.875Z,3.22
2023-05-24T21:27:53.078Z,2.97
2023-05-24T21:30:20.407Z,2.90
2023-05-24T21:32:47.718Z,3.00
2023-05-24T21:35:14.963Z,3.15
2023-05-24T21:37:42.212Z,2.92
2023-05-24T21:40:09.870Z,2.65
2023-05-24T21:42:37.354Z,2.90
2023-05-24T21:45:04.855Z,3.40
2023-05-24T21:47:33.679Z,2.78
2023-05-24T21:50:00.964Z,2.70
2023-05-24T21:52:28.229Z,2.30
2023-05-24T21:54:55.642Z,3.05
2023-05-24T21:57:26.172Z,3.00
2023-05-24T21:59:53.681Z,2.70
2023-05-24T22:02:21.806Z,2.83
2023-05-24T22:04:49.449Z,2.70
2023-05-24T22:07:16.605Z,2.90
2023-05-24T22:09:43.904Z,2.58
2023-05-24T22:12:11.195Z,2.80
2023-05-24T22:14:38.443Z,2.38
2023-05-24T22:17:05.878Z,2.70
2023-05-24T22:22:03.337Z,2.70
2023-05-24T22:24:30.954Z,2.60
2023-05-24T22:27:01.392Z,2.80
2023-05-24T22:29:29.049Z,2.92
2023-05-24T22:31:56.333Z,2.88
2023-05-24T22:34:26.132Z,3.00
2023-05-24T22:36:53.495Z,2.50
2023-05-24T22:39:22.015Z,2.80
2023-05-24T22:41:49.306Z,2.97
2023-05-24T22:44:16.787Z,2.55
2023-05-24T22:46:44.186Z,2.95
2023-05-24T22:49:13.501Z,2.83
2023-05-24T22:51:44.623Z,2.83
2023-05-24T22:54:12.617Z,2.72
2023-05-24T22:56:39.975Z,2.67
2023-05-24T22:59:07.630Z,2.80
2023-05-24T23:01:34.890Z,2.90
2023-05-24T23:04:18.746Z,3.08
2023-05-24T23:06:47.091Z,2.80
2023-05-24T23:09:14.260Z,3.10
2023-05-24T23:11:43.089Z,2.80
2023-05-24T23:14:11.727Z,2.83
2023-05-24T23:16:45.775Z,3.10
2023-05-24T23:19:18.513Z,2.90
2023-05-24T23:21:46.251Z,3.13
2023-05-24T23:24:16.031Z,2.78
2023-05-24T23:26:43.796Z,3.25
2023-05-24T23:29:11.351Z,2.80
2023-05-24T23:31:39.659Z,3.30
2023-05-24T23:34:07.716Z,3.05
2023-05-24T23:36:35.020Z,2.90
2023-05-24T23:39:02.162Z,3.30
2023-05-24T23:41:29.422Z,3.00
2023-05-24T23:43:56.522Z,3.20
2023-05-24T23:46:23.896Z,3.08
2023-05-24T23:48:51.330Z,3.00
2023-05-24T23:51:20.216Z,2.80
2023-05-24T23:53:47.387Z,3.20
2023-05-24T23:56:14.715Z,3.15
2023-05-24T23:58:42.031Z,2.95
